createdAt,value
2022-11-30T00:01:36.404Z,9.70
2022-11-30T00:04:05.792Z,9.70
2022-11-30T00:06:32.910Z,9.70
2022-11-30T00:09:00.156Z,9.70
2022-11-30T00:11:29.826Z,9.70
2022-11-30T00:13:57.035Z,9.70
2022-11-30T00:16:27.585Z,9.70
2022-11-30T00:18:59.844Z,9.70
2022-11-30T00:21:28.957Z,9.70
2022-11-30T00:23:56.072Z,9.60
2022-11-30T00:26:23.314Z,9.60
2022-11-30T00:28:50.812Z,9.60
2022-11-30T00:31:21.069Z,9.60
2022-11-30T00:33:48.625Z,9.60
2022-11-30T00:36:20.713Z,9.60
2022-11-30T00:38:51.158Z,9.70
2022-11-30T00:41:22.835Z,9.70
2022-11-30T00:43:49.965Z,9.70
2022-11-30T00:46:21.888Z,9.70
2022-11-30T00:48:49.016Z,9.80
2022-11-30T00:51:19.363Z,9.80
2022-11-30T00:53:49.262Z,9.80
2022-11-30T00:56:18.805Z,9.80
2022-11-30T00:58:46.057Z,9.80
2022-11-30T01:01:13.184Z,9.80
2022-11-30T01:03:40.685Z,9.80
2022-11-30T01:06:09.559Z,9.80
2022-11-30T01:08:36.846Z,9.80
2022-11-30T01:11:28.977Z,9.70
2022-11-30T01:14:03.657Z,9.70
2022-11-30T01:16:36.434Z,9.70
2022-11-30T01:19:04.232Z,9.60
2022-11-30T01:21:34.302Z,9.60
2022-11-30T01:24:03.636Z,9.50
2022-11-30T01:26:33.042Z,9.50
2022-11-30T01:29:02.215Z,9.50
2022-11-30T01:31:31.445Z,9.40
2022-11-30T01:34:01.499Z,9.40
2022-11-30T01:36:33.150Z,9.40
2022-11-30T01:39:00.328Z,9.40
2022-11-30T01:41:32.468Z,9.30
2022-11-30T01:44:05.871Z,9.30
2022-11-30T01:46:55.489Z,9.30
2022-11-30T01:49:32.353Z,9.30
2022-11-30T01:52:04.831Z,9.30
2022-11-30T01:54:50.395Z,9.30
2022-11-30T01:57:40.925Z,9.30
2022-11-30T02:00:13.218Z,9.40
2022-11-30T02:02:49.064Z,9.30
2022-11-30T02:05:18.350Z,9.30
2022-11-30T02:07:46.050Z,9.30
2022-11-30T02:10:19.180Z,9.30
2022-11-30T02:13:07.747Z,9.30
2022-11-30T02:16:06.620Z,9.30
2022-11-30T02:19:12.100Z,9.30
2022-11-30T02:21:57.908Z,9.30
2022-11-30T02:24:44.601Z,9.30
2022-11-30T02:27:54.947Z,9.30
2022-11-30T02:30:24.021Z,9.30
2022-11-30T02:32:59.604Z,9.20
2022-11-30T02:35:37.479Z,9.30
2022-11-30T02:38:07.474Z,9.20
2022-11-30T02:40:34.674Z,9.20
2022-11-30T02:43:04.230Z,9.20
2022-11-30T02:45:44.634Z,9.20
2022-11-30T02:48:17.214Z,9.20
2022-11-30T02:50:59.472Z,9.20
2022-11-30T02:53:26.702Z,9.20
2022-11-30T02:55:56.148Z,9.20
2022-11-30T02:58:28.317Z,9.20
2022-11-30T03:01:00.089Z,9.20
2022-11-30T03:03:29.755Z,9.20
2022-11-30T03:05:58.984Z,9.20
2022-11-30T03:08:28.158Z,9.30
2022-11-30T03:11:04.834Z,9.30
2022-11-30T03:13:34.678Z,9.30
2022-11-30T03:16:10.554Z,9.30
2022-11-30T03:18:40.663Z,9.30
2022-11-30T03:21:12.411Z,9.30
2022-11-30T03:23:44.224Z,9.30
2022-11-30T03:26:13.547Z,9.30
2022-11-30T03:28:40.713Z,9.30
2022-11-30T03:31:12.002Z,9.30
2022-11-30T03:33:43.661Z,9.30
2022-11-30T03:36:12.162Z,9.20
2022-11-30T03:38:44.114Z,9.20
2022-11-30T03:41:18.069Z,9.20
2022-11-30T03:43:46.599Z,9.20
2022-11-30T03:46:14.568Z,9.20
2022-11-30T03:48:43.859Z,9.20
2022-11-30T03:51:12.884Z,9.20
2022-11-30T03:53:42.091Z,9.20
2022-11-30T03:56:16.848Z,9.20
2022-11-30T03:58:44.071Z,9.20
2022-11-30T04:01:14.155Z,9.20
2022-11-30T04:03:42.116Z,9.20
2022-11-30T04:06:11.252Z,9.20
2022-11-30T04:08:41.789Z,9.20
2022-11-30T04:11:14.089Z,9.20
2022-11-30T04:13:41.602Z,9.20
2022-11-30T04:16:09.982Z,9.20
2022-11-30T04:18:40.027Z,9.10
2022-11-30T04:21:08.009Z,9.10
2022-11-30T04:23:39.896Z,9.10
2022-11-30T04:26:12.506Z,9.10
2022-11-30T04:28:39.827Z,9.10
2022-11-30T04:31:07.282Z,9.10
2022-11-30T04:33:34.561Z,9.10
2022-11-30T04:36:04.398Z,9.10
2022-11-30T04:38:39.593Z,9.10
2022-11-30T04:41:09.723Z,9.10
2022-11-30T04:43:39.123Z,9.10
2022-11-30T04:46:06.869Z,9.10
2022-11-30T04:48:34.615Z,9.10
2022-11-30T04:51:08.059Z,9.10
2022-11-30T04:53:38.845Z,9.10
2022-11-30T04:56:12.131Z,9.20
2022-11-30T04:58:39.914Z,9.20
2022-11-30T05:01:11.834Z,9.30
2022-11-30T05:03:38.963Z,9.30
2022-11-30T05:06:08.623Z,9.20
2022-11-30T05:08:35.797Z,9.30
2022-11-30T05:11:02.926Z,9.30
2022-11-30T05:13:30.120Z,9.30
2022-11-30T05:16:01.962Z,9.20
2022-11-30T05:18:31.670Z,9.30
2022-11-30T05:20:58.921Z,9.30
2022-11-30T05:23:26.028Z,9.20
2022-11-30T05:25:57.607Z,9.20
2022-11-30T05:28:25.007Z,9.20
2022-11-30T05:30:52.304Z,9.20
2022-11-30T05:33:24.897Z,9.20
2022-11-30T05:35:54.254Z,9.20
2022-11-30T05:38:23.623Z,9.20
2022-11-30T05:40:58.791Z,9.20
2022-11-30T05:43:28.633Z,9.20
2022-11-30T05:46:05.789Z,9.20
2022-11-30T05:48:37.979Z,9.10
2022-11-30T05:51:12.389Z,9.10
2022-11-30T05:53:44.556Z,9.10
2022-11-30T05:56:14.064Z,9.10
2022-11-30T05:58:44.078Z,9.00
2022-11-30T06:01:24.934Z,9.00
2022-11-30T06:03:55.015Z,9.00
2022-11-30T06:06:24.445Z,9.00
2022-11-30T06:08:51.557Z,8.90
2022-11-30T06:11:23.324Z,9.00
2022-11-30T06:13:50.482Z,9.00
2022-11-30T06:16:19.821Z,9.00
2022-11-30T06:18:49.379Z,9.00
2022-11-30T06:21:20.990Z,9.00
2022-11-30T06:23:51.253Z,8.90
2022-11-30T06:26:22.979Z,8.90
2022-11-30T06:28:50.118Z,8.90
2022-11-30T06:31:17.387Z,8.90
2022-11-30T06:33:46.898Z,8.90
2022-11-30T06:36:14.095Z,8.90
2022-11-30T06:38:41.241Z,8.90
2022-11-30T06:41:12.543Z,8.90
2022-11-30T06:43:40.371Z,8.90
2022-11-30T06:46:08.057Z,8.90
2022-11-30T06:48:37.828Z,8.90
2022-11-30T06:51:11.245Z,8.90
2022-11-30T06:53:38.639Z,8.80
2022-11-30T06:56:10.703Z,8.80
2022-11-30T06:58:39.540Z,8.80
2022-11-30T07:01:14.432Z,8.80
2022-11-30T07:03:46.389Z,8.90
2022-11-30T07:06:20.958Z,8.90
2022-11-30T07:08:47.990Z,8.80
2022-11-30T07:11:15.141Z,8.80
2022-11-30T07:13:45.792Z,8.80
2022-11-30T07:16:17.654Z,8.90
2022-11-30T07:18:44.862Z,8.90
2022-11-30T07:21:14.103Z,8.80
2022-11-30T07:24:00.030Z,8.90
2022-11-30T07:26:27.583Z,8.80
2022-11-30T07:28:58.360Z,8.80
2022-11-30T07:31:28.317Z,8.80
2022-11-30T07:33:58.663Z,8.80
2022-11-30T07:36:27.316Z,8.80
2022-11-30T07:38:59.434Z,8.80
2022-11-30T07:41:28.767Z,8.80
2022-11-30T07:43:55.900Z,8.80
2022-11-30T07:46:23.089Z,8.90
2022-11-30T07:48:50.471Z,8.90
2022-11-30T07:51:21.938Z,8.90
2022-11-30T07:53:51.669Z,8.90
2022-11-30T07:56:22.634Z,8.90
2022-11-30T07:58:53.923Z,8.90
2022-11-30T08:01:23.295Z,8.90
2022-11-30T08:03:54.059Z,8.90
2022-11-30T08:06:28.050Z,8.90
2022-11-30T08:08:57.906Z,8.80
2022-11-30T08:11:30.351Z,8.80
2022-11-30T08:14:00.100Z,8.80
2022-11-30T08:16:33.738Z,8.80
2022-11-30T08:19:05.364Z,8.80
2022-11-30T08:21:32.690Z,8.80
2022-11-30T08:24:02.624Z,8.80
2022-11-30T08:26:34.018Z,8.80
2022-11-30T08:29:03.906Z,8.70
2022-11-30T08:31:39.808Z,8.70
2022-11-30T08:34:12.892Z,8.70
2022-11-30T08:36:48.811Z,8.60
2022-11-30T08:39:19.030Z,8.60
2022-11-30T08:41:48.515Z,8.60
2022-11-30T08:44:20.091Z,8.60
2022-11-30T08:46:52.129Z,8.60
2022-11-30T08:49:25.573Z,8.60
2022-11-30T08:54:45.137Z,8.60
2022-11-30T08:57:12.825Z,8.60
2022-11-30T08:59:39.965Z,8.60
2022-11-30T09:02:10.991Z,8.70
2022-11-30T09:04:42.824Z,8.70
2022-11-30T09:07:10.260Z,8.70
2022-11-30T09:09:38.028Z,8.70
2022-11-30T09:12:07.767Z,8.70
2022-11-30T09:14:37.379Z,8.70
2022-11-30T09:17:04.613Z,8.70
2022-11-30T09:19:31.805Z,8.80
2022-11-30T09:21:59.049Z,8.80
2022-11-30T09:24:28.286Z,8.80
2022-11-30T09:26:57.430Z,8.80
2022-11-30T09:29:27.073Z,8.80
2022-11-30T09:31:56.706Z,8.80
2022-11-30T09:34:23.814Z,8.80
2022-11-30T09:36:56.024Z,8.90
2022-11-30T09:39:23.119Z,8.90
2022-11-30T09:41:59.657Z,8.90
2022-11-30T09:44:51.109Z,9.00
2022-11-30T09:47:41.524Z,9.00
2022-11-30T09:50:19.184Z,9.10
2022-11-30T09:52:58.402Z,9.10
2022-11-30T09:55:33.033Z,9.00
2022-11-30T09:58:04.768Z,9.10
2022-11-30T10:00:33.688Z,9.00
2022-11-30T10:03:06.046Z,9.00
2022-11-30T10:05:51.747Z,9.10
2022-11-30T10:08:51.072Z,9.10
2022-11-30T10:11:38.893Z,9.10
2022-11-30T10:14:47.651Z,9.10
2022-11-30T10:17:37.237Z,9.10
2022-11-30T10:20:16.986Z,9.10
2022-11-30T10:22:45.535Z,9.10
2022-11-30T10:25:25.486Z,9.20
2022-11-30T10:27:54.930Z,9.20
2022-11-30T10:30:24.551Z,9.20
2022-11-30T10:32:59.871Z,9.30
2022-11-30T10:35:54.213Z,9.30
2022-11-30T10:38:26.140Z,9.40
2022-11-30T10:41:15.480Z,9.40
2022-11-30T10:43:54.983Z,9.40
2022-11-30T10:46:33.511Z,9.40
2022-11-30T10:49:23.437Z,9.40
2022-11-30T10:51:57.195Z,9.40
2022-11-30T10:54:26.502Z,9.40
2022-11-30T10:56:59.498Z,9.40
2022-11-30T10:59:31.635Z,9.50
2022-11-30T11:02:01.451Z,9.60
2022-11-30T11:04:28.625Z,9.50
2022-11-30T11:06:59.586Z,9.60
2022-11-30T11:09:40.652Z,9.60
2022-11-30T11:12:27.535Z,9.70
2022-11-30T11:15:21.504Z,9.70
2022-11-30T11:17:52.257Z,9.70
2022-11-30T11:20:42.575Z,9.70
2022-11-30T11:23:41.083Z,9.80
2022-11-30T11:26:23.023Z,9.70
2022-11-30T11:28:52.929Z,9.70
2022-11-30T11:31:32.441Z,9.70
2022-11-30T11:34:04.750Z,9.70
2022-11-30T11:36:34.095Z,9.70
2022-11-30T11:39:23.884Z,9.70
2022-11-30T11:41:52.815Z,9.70
2022-11-30T11:44:27.122Z,9.70
2022-11-30T11:47:06.032Z,9.70
2022-11-30T11:49:37.028Z,9.70
2022-11-30T11:52:20.318Z,9.70
2022-11-30T11:55:00.532Z,9.70
2022-11-30T11:57:54.455Z,9.70
2022-11-30T12:00:25.295Z,9.70
2022-11-30T12:03:13.375Z,9.70
2022-11-30T12:05:50.335Z,9.80
2022-11-30T12:08:32.976Z,9.80
2022-11-30T12:11:14.490Z,9.80
2022-11-30T12:13:43.931Z,9.80
2022-11-30T12:16:19.910Z,9.90
2022-11-30T12:19:12.757Z,9.90
2022-11-30T12:22:15.616Z,9.80
2022-11-30T12:25:05.632Z,9.80
2022-11-30T12:27:54.673Z,9.80
2022-11-30T12:30:36.205Z,9.80
2022-11-30T12:33:18.398Z,9.80
2022-11-30T12:36:24.609Z,9.80
2022-11-30T12:39:18.747Z,9.80
2022-11-30T12:41:59.821Z,9.80
2022-11-30T12:45:04.592Z,9.80
2022-11-30T12:47:36.610Z,9.80
2022-11-30T12:50:21.375Z,9.80
2022-11-30T12:52:55.522Z,9.80
2022-11-30T12:55:35.505Z,9.90
2022-11-30T12:58:14.803Z,9.90
2022-11-30T13:01:05.451Z,10.00
2022-11-30T13:03:52.443Z,10.10
2022-11-30T13:06:29.413Z,10.10
2022-11-30T13:09:10.118Z,10.10
2022-11-30T13:11:43.452Z,10.10
2022-11-30T13:14:18.070Z,10.10
2022-11-30T13:16:46.868Z,10.10
2022-11-30T13:19:51.691Z,10.10
2022-11-30T13:22:47.382Z,10.10
2022-11-30T13:28:40.178Z,10.10
2022-11-30T13:31:22.233Z,10.10
2022-11-30T13:33:59.251Z,10.10
2022-11-30T13:36:44.745Z,10.10
2022-11-30T13:39:15.073Z,10.20
2022-11-30T13:41:48.460Z,10.20
2022-11-30T13:44:40.412Z,10.20
2022-11-30T13:47:36.742Z,10.20
2022-11-30T13:50:09.887Z,10.20
2022-11-30T13:53:08.059Z,10.20
2022-11-30T13:55:52.781Z,10.20
2022-11-30T13:58:20.588Z,10.20
2022-11-30T14:01:01.403Z,10.20
2022-11-30T14:03:31.374Z,10.20
2022-11-30T14:06:28.806Z,10.20
2022-11-30T14:08:58.518Z,10.20
2022-11-30T14:11:38.023Z,10.20
2022-11-30T14:14:47.009Z,10.20
2022-11-30T14:17:23.419Z,10.30
2022-11-30T14:19:57.937Z,10.20
2022-11-30T14:22:31.292Z,10.30
2022-11-30T14:24:58.769Z,10.30
2022-11-30T14:27:31.920Z,10.30
2022-11-30T14:30:04.113Z,10.30
2022-11-30T14:32:41.547Z,10.30
2022-11-30T14:35:12.721Z,10.20
2022-11-30T14:37:46.514Z,10.20
2022-11-30T14:40:19.962Z,10.20
2022-11-30T14:42:54.357Z,10.20
2022-11-30T14:45:28.903Z,10.20
2022-11-30T14:48:14.082Z,10.10
2022-11-30T14:50:48.164Z,10.10
2022-11-30T14:53:47.016Z,10.10
2022-11-30T14:56:34.611Z,10.10
2022-11-30T14:59:10.234Z,10.10
2022-11-30T15:01:40.557Z,10.10
2022-11-30T15:04:16.211Z,10.10
2022-11-30T15:06:50.110Z,10.20
2022-11-30T15:09:20.240Z,10.20
2022-11-30T15:11:54.726Z,10.20
2022-11-30T15:14:24.610Z,10.10
2022-11-30T15:16:57.173Z,10.10
2022-11-30T15:19:30.160Z,10.10
2022-11-30T15:22:01.270Z,10.10
2022-11-30T15:24:31.078Z,10.00
2022-11-30T15:27:11.052Z,9.90
2022-11-30T15:29:44.516Z,9.90
2022-11-30T15:32:23.843Z,9.90
2022-11-30T15:34:56.569Z,9.90
2022-11-30T15:37:39.692Z,9.80
2022-11-30T15:40:10.889Z,9.80
2022-11-30T15:42:40.881Z,9.70
2022-11-30T15:45:26.014Z,9.70
2022-11-30T15:47:59.136Z,9.70
2022-11-30T15:50:29.438Z,9.70
2022-11-30T15:52:59.023Z,9.60
2022-11-30T15:55:50.066Z,9.70
2022-11-30T15:58:45.573Z,9.60
2022-11-30T16:01:22.560Z,9.60
2022-11-30T16:03:54.860Z,9.60
2022-11-30T16:06:48.063Z,9.50
2022-11-30T16:09:25.360Z,9.50
2022-11-30T16:11:57.959Z,9.40
2022-11-30T16:14:25.105Z,9.40
2022-11-30T16:16:53.850Z,9.40
2022-11-30T16:19:21.614Z,9.30
2022-11-30T16:21:49.956Z,9.30
2022-11-30T16:24:17.281Z,9.30
2022-11-30T16:26:52.324Z,9.30
2022-11-30T16:29:22.622Z,9.30
2022-11-30T16:31:49.873Z,9.30
2022-11-30T16:34:19.428Z,9.30
2022-11-30T16:36:46.611Z,9.30
2022-11-30T16:39:13.805Z,9.30
2022-11-30T16:41:41.226Z,9.30
2022-11-30T16:44:18.179Z,9.30
2022-11-30T16:46:48.741Z,9.30
2022-11-30T16:49:16.149Z,9.40
2022-11-30T16:51:45.493Z,9.40
2022-11-30T16:54:19.355Z,9.40
2022-11-30T16:56:47.761Z,9.50
2022-11-30T16:59:17.326Z,9.50
2022-11-30T17:01:52.847Z,9.60
2022-11-30T17:04:26.025Z,9.60
2022-11-30T17:07:02.047Z,9.60
2022-11-30T17:09:34.548Z,9.60
2022-11-30T17:12:04.400Z,9.60
2022-11-30T17:14:35.969Z,9.60
2022-11-30T17:17:03.183Z,9.60
2022-11-30T17:19:30.440Z,9.70
2022-11-30T17:21:59.893Z,9.70
2022-11-30T17:24:27.110Z,9.60
2022-11-30T17:26:54.250Z,9.60
2022-11-30T17:29:21.428Z,9.60
2022-11-30T17:31:50.797Z,9.60
2022-11-30T17:34:17.909Z,9.60
2022-11-30T17:36:45.200Z,9.50
2022-11-30T17:39:12.497Z,9.50
2022-11-30T17:41:39.671Z,9.50
2022-11-30T17:44:06.784Z,9.50
2022-11-30T17:46:33.916Z,9.50
2022-11-30T17:49:01.117Z,9.50
2022-11-30T17:51:28.392Z,9.50
2022-11-30T17:53:58.651Z,9.50
2022-11-30T17:56:28.710Z,9.50
2022-11-30T17:58:59.731Z,9.50
2022-11-30T18:01:27.525Z,9.40
2022-11-30T18:03:59.613Z,9.40
2022-11-30T18:06:31.582Z,9.40
2022-11-30T18:08:58.791Z,9.40
2022-11-30T18:11:28.864Z,9.40
2022-11-30T18:14:01.810Z,9.40
2022-11-30T18:16:31.743Z,9.40
2022-11-30T18:19:01.443Z,9.40
2022-11-30T18:21:32.616Z,9.40
2022-11-30T18:24:02.034Z,9.40
2022-11-30T18:26:34.227Z,9.40
2022-11-30T18:29:01.958Z,9.40
2022-11-30T18:31:31.694Z,9.40
2022-11-30T18:34:05.230Z,9.50
2022-11-30T18:36:37.107Z,9.50
2022-11-30T18:39:06.593Z,9.50
2022-11-30T18:41:35.765Z,9.50
2022-11-30T18:44:02.874Z,9.50
2022-11-30T18:46:32.801Z,9.50
2022-11-30T18:49:02.551Z,9.50
2022-11-30T18:51:31.748Z,9.50
2022-11-30T18:54:11.405Z,9.40
2022-11-30T18:56:39.144Z,9.40
2022-11-30T18:59:14.820Z,9.40
2022-11-30T19:01:44.612Z,9.40
2022-11-30T19:04:14.531Z,9.30
2022-11-30T19:06:43.005Z,9.30
2022-11-30T19:09:15.639Z,9.30
2022-11-30T19:11:43.637Z,9.20
2022-11-30T19:14:15.323Z,9.20
2022-11-30T19:16:43.173Z,9.20
2022-11-30T19:19:13.839Z,9.10
2022-11-30T19:21:44.273Z,9.10
2022-11-30T19:24:11.571Z,9.00
2022-11-30T19:26:40.176Z,9.00
2022-11-30T19:29:16.075Z,8.90
2022-11-30T19:31:43.331Z,8.90
2022-11-30T19:34:16.912Z,8.90
2022-11-30T19:36:49.191Z,8.80
2022-11-30T19:39:18.576Z,8.80
2022-11-30T19:41:50.598Z,8.80
2022-11-30T19:44:20.037Z,8.80
2022-11-30T19:46:47.219Z,8.80
2022-11-30T19:49:16.879Z,8.70
2022-11-30T19:51:44.028Z,8.70
2022-11-30T19:54:11.215Z,8.70
2022-11-30T19:56:39.040Z,8.60
2022-11-30T19:59:06.408Z,8.60
2022-11-30T20:01:34.543Z,8.60
2022-11-30T20:04:06.523Z,8.60
2022-11-30T20:06:39.620Z,8.60
2022-11-30T20:09:08.414Z,8.60
2022-11-30T20:11:38.115Z,8.60
2022-11-30T20:14:05.294Z,8.60
2022-11-30T20:16:32.732Z,8.60
2022-11-30T20:19:03.101Z,8.50
2022-11-30T20:21:32.964Z,8.50
2022-11-30T20:24:06.086Z,8.50
2022-11-30T20:26:36.057Z,8.50
2022-11-30T20:29:05.528Z,8.40
2022-11-30T20:31:35.453Z,8.40
2022-11-30T20:34:03.214Z,8.40
2022-11-30T20:36:30.536Z,8.40
2022-11-30T20:39:00.212Z,8.30
2022-11-30T20:41:27.431Z,8.30
2022-11-30T20:43:57.287Z,8.30
2022-11-30T20:46:32.656Z,8.20
2022-11-30T20:49:13.872Z,8.20
2022-11-30T20:51:46.814Z,8.20
2022-11-30T20:54:15.126Z,8.20
2022-11-30T20:56:44.508Z,8.10
2022-11-30T20:59:17.095Z,8.10
2022-11-30T21:01:48.002Z,8.10
2022-11-30T21:04:15.158Z,8.00
2022-11-30T21:06:47.345Z,8.00
2022-11-30T21:09:16.194Z,8.00
2022-11-30T21:11:46.524Z,8.00
2022-11-30T21:14:14.078Z,8.00
2022-11-30T21:16:45.992Z,8.00
2022-11-30T21:19:16.756Z,8.10
2022-11-30T21:21:46.432Z,8.10
2022-11-30T21:24:13.777Z,8.10
2022-11-30T21:26:42.927Z,8.10
2022-11-30T21:29:15.555Z,8.10
2022-11-30T21:31:45.501Z,8.10
2022-11-30T21:34:15.134Z,8.20
2022-11-30T21:36:42.380Z,8.20
2022-11-30T21:39:13.480Z,8.20
2022-11-30T21:41:40.695Z,8.20
2022-11-30T21:44:14.064Z,8.20
2022-11-30T21:46:45.499Z,8.20
2022-11-30T21:49:14.466Z,8.10
2022-11-30T21:51:44.755Z,8.10
2022-11-30T21:54:13.288Z,8.10
2022-11-30T21:56:42.707Z,8.10
2022-11-30T21:59:12.628Z,8.10
2022-11-30T22:01:41.934Z,8.10
2022-11-30T22:04:13.698Z,8.00
2022-11-30T22:06:44.109Z,8.00
2022-11-30T22:09:16.851Z,8.00
2022-11-30T22:11:48.307Z,8.00
2022-11-30T22:14:18.024Z,8.00
2022-11-30T22:16:45.708Z,7.90
2022-11-30T22:19:16.319Z,7.90
2022-11-30T22:21:50.006Z,7.90
2022-11-30T22:24:17.804Z,7.90
2022-11-30T22:26:46.098Z,7.90
2022-11-30T22:29:16.508Z,7.80
2022-11-30T22:31:46.117Z,7.80
2022-11-30T22:34:15.919Z,7.80
2022-11-30T22:36:44.366Z,7.80
2022-11-30T22:39:13.613Z,7.80
2022-11-30T22:41:42.038Z,7.80
2022-11-30T22:44:18.504Z,7.80
2022-11-30T22:46:48.299Z,7.70
2022-11-30T22:49:21.586Z,7.70
2022-11-30T22:51:52.769Z,7.70
2022-11-30T22:54:20.086Z,7.60
2022-11-30T22:56:47.323Z,7.60
2022-11-30T22:59:15.541Z,7.60
2022-11-30T23:01:48.166Z,7.70
2022-11-30T23:04:20.360Z,7.70
2022-11-30T23:06:48.990Z,7.70
2022-11-30T23:09:23.331Z,7.80
2022-11-30T23:11:51.041Z,7.80
2022-11-30T23:14:19.011Z,7.80
2022-11-30T23:16:46.483Z,7.80
2022-11-30T23:19:16.644Z,7.80
2022-11-30T23:21:46.424Z,7.80
2022-11-30T23:24:20.568Z,7.80
2022-11-30T23:26:48.310Z,7.80
2022-11-30T23:29:18.471Z,7.80
2022-11-30T23:31:51.055Z,7.80
2022-11-30T23:34:24.210Z,7.80
2022-11-30T23:36:53.540Z,7.80
2022-11-30T23:39:21.001Z,7.80
2022-11-30T23:41:50.872Z,7.80
2022-11-30T23:44:20.566Z,7.80
2022-11-30T23:46:50.357Z,7.80
2022-11-30T23:49:17.670Z,7.80
2022-11-30T23:51:44.824Z,7.90
2022-11-30T23:54:14.023Z,7.90
2022-11-30T23:56:41.187Z,7.90
2022-11-30T23:59:11.295Z,7.90
